Dubendorf Airport LSMD

Flugplatz Daten

Name: Dubendorf Airport

Ident: LSMD

Lat: 47,39860153

Long: 8,648229599

Platzhöhe: 1470 ft

IataCode:

City: Zurich

Metar

2022/08/10 20:20
LSMD 102020Z AUTO VRB02KT 9999NDV NCD 21/10 Q1021 RMK

Taf

2022/08/10 17:00
TAF LSMD 101625Z 1017/1123 08010KT CAVOK
Gewünschte Webcam nicht vorhanden? Dann fügen Sie eine hinzu. Sie wird dann so schnell wie möglich freigeschaltet
Url: Title: